Time;durP1;ratioP1;P1;durP2;ratioP2;P2;SDS_P1;SDS_P2;PMS_P1;PMS_P2;Temp;Humidity;BMP_temperature;BMP_pressure;BME280_temperature;BME280_humidity;BME280_pressure;Samples;Min_cycle;Max_cycle;Signal;HPM_P1;HPM_P2
2024/04/10 00:00:56;;;;;;;3.17;2.97;;;;;;;;;;5451277;26;20317;-61
2024/04/10 00:03:22;;;;;;;3.92;3.55;;;;;;;;;;5448723;26;20236;-61
2024/04/10 00:05:59;;;;;;;2.85;2.65;;;;;;;;;;5450928;26;20270;-61
2024/04/10 00:08:25;;;;;;;3.45;3.17;;;;;;;;;;5448637;26;20236;-61
2024/04/10 00:10:53;;;;;;;3.80;3.50;;;;;;;;;;5451028;26;20562;-60
2024/04/10 00:13:18;;;;;;;3.40;3.03;;;;;;;;;;5448450;26;20236;-61
2024/04/10 00:15:58;;;;;;;4.53;4.22;;;;;;;;;;5451016;26;20316;-61
2024/04/10 00:18:24;;;;;;;3.10;2.90;;;;;;;;;;5448513;26;20376;-61
2024/04/10 00:20:53;;;;;;;4.20;3.83;;;;;;;;;;5451117;26;20223;-62
2024/04/10 00:23:19;;;;;;;4.30;4.00;;;;;;;;;;5448336;26;20278;-62
2024/04/10 00:25:54;;;;;;;3.80;3.55;;;;;;;;;;5450683;26;20582;-62
2024/04/10 00:28:20;;;;;;;3.60;3.30;;;;;;;;;;5448432;26;20265;-62
2024/04/10 00:30:50;;;;;;;3.17;2.97;;;;;;;;;;5448851;26;20239;-62
2024/04/10 00:33:16;;;;;;;3.15;2.95;;;;;;;;;;5448426;26;20232;-62
2024/04/10 00:35:44;;;;;;;2.67;2.47;;;;;;;;;;5450540;26;20220;-62
2024/04/10 00:38:12;;;;;;;3.35;2.83;;;;;;;;;;5448379;26;20266;-62
2024/04/10 00:40:40;;;;;;;2.28;2.17;;;;;;;;;;5389520;26;20233;-61
2024/04/10 00:43:11;;;;;;;2.83;2.63;;;;;;;;;;5448160;26;20281;-62
2024/04/10 00:45:41;;;;;;;2.53;2.33;;;;;;;;;;5450580;26;20227;-62
2024/04/10 00:48:09;;;;;;;2.28;2.17;;;;;;;;;;5447881;26;20290;-63
2024/04/10 00:50:37;;;;;;;3.00;2.17;;;;;;;;;;5450509;26;20601;-63
2024/04/10 00:53:03;;;;;;;3.92;3.17;;;;;;;;;;5447746;26;20365;-62
2024/04/10 00:55:32;;;;;;;5.65;5.03;;;;;;;;;;5449910;26;20239;-62
2024/04/10 00:57:58;;;;;;;5.72;4.63;;;;;;;;;;5447862;26;20787;-62
2024/04/10 01:00:28;;;;;;;5.20;4.80;;;;;;;;;;5450094;26;20505;-62
2024/04/10 01:02:54;;;;;;;5.07;4.70;;;;;;;;;;5447565;26;20236;-61
2024/04/10 01:05:24;;;;;;;2.90;2.70;;;;;;;;;;5450506;26;20270;-62
2024/04/10 01:07:51;;;;;;;3.60;3.30;;;;;;;;;;5447461;26;20274;-62
2024/04/10 01:10:19;;;;;;;3.85;3.55;;;;;;;;;;5449213;26;20228;-62
2024/04/10 01:12:45;;;;;;;5.00;4.60;;;;;;;;;;5447363;26;20219;-61
2024/04/10 01:15:14;;;;;;;3.60;3.40;;;;;;;;;;5450131;26;20228;-62
2024/04/10 01:17:39;;;;;;;4.72;4.28;;;;;;;;;;5414622;26;20577;-61
2024/04/10 01:20:08;;;;;;;4.10;3.80;;;;;;;;;;5449723;26;20228;-62
2024/04/10 01:22:36;;;;;;;4.03;3.72;;;;;;;;;;5447327;26;20267;-62
2024/04/10 01:25:07;;;;;;;4.00;3.70;;;;;;;;;;5450063;26;20275;-62
2024/04/10 01:27:33;;;;;;;3.72;3.42;;;;;;;;;;5447452;26;20232;-64
2024/04/10 01:30:01;;;;;;;3.00;2.80;;;;;;;;;;5448551;26;20835;-62
2024/04/10 01:32:27;;;;;;;4.68;2.60;;;;;;;;;;5447611;26;20228;-64
2024/04/10 01:34:55;;;;;;;2.58;2.38;;;;;;;;;;5449752;26;20231;-63
2024/04/10 01:37:20;;;;;;;2.97;2.78;;;;;;;;;;5385877;26;20274;-63
2024/04/10 01:39:48;;;;;;;2.60;2.40;;;;;;;;;;5449744;26;20231;-63
2024/04/10 01:42:17;;;;;;;2.20;2.10;;;;;;;;;;5447312;26;20223;-64
2024/04/10 01:44:45;;;;;;;2.45;2.25;;;;;;;;;;5449878;26;20274;-64
2024/04/10 01:47:10;;;;;;;1.70;1.60;;;;;;;;;;5447214;26;20293;-64
2024/04/10 01:49:39;;;;;;;1.95;1.85;;;;;;;;;;5450314;26;20573;-64
2024/04/10 01:52:04;;;;;;;2.50;2.30;;;;;;;;;;5447449;26;20270;-63
2024/04/10 01:54:35;;;;;;;3.30;3.00;;;;;;;;;;5449743;26;20232;-64
2024/04/10 01:57:00;;;;;;;4.05;3.75;;;;;;;;;;5446972;26;20235;-64
2024/04/10 01:59:31;;;;;;;6.88;5.90;;;;;;;;;;5449586;26;20228;-63
2024/04/10 02:01:56;;;;;;;5.63;5.22;;;;;;;;;;5447016;26;20558;-63
2024/04/10 02:04:25;;;;;;;4.40;4.10;;;;;;;;;;5449237;26;20300;-64
2024/04/10 02:06:50;;;;;;;4.80;4.40;;;;;;;;;;5447010;26;20231;-63
2024/04/10 02:09:18;;;;;;;5.10;4.70;;;;;;;;;;5449383;26;20332;-64
2024/04/10 02:11:44;;;;;;;3.80;3.50;;;;;;;;;;5446796;26;20274;-64
2024/04/10 02:14:12;;;;;;;4.72;4.43;;;;;;;;;;5416131;26;20624;-64
2024/04/10 02:16:40;;;;;;;2.80;2.60;;;;;;;;;;5447092;26;20564;-64
2024/04/10 02:19:09;;;;;;;4.25;3.85;;;;;;;;;;5448816;26;20387;-63
2024/04/10 02:21:34;;;;;;;3.38;3.17;;;;;;;;;;5385569;26;20278;-64
2024/04/10 02:24:02;;;;;;;2.92;2.72;;;;;;;;;;5452718;26;20227;-63
2024/04/10 02:26:28;;;;;;;2.90;2.50;;;;;;;;;;5449683;26;20329;-64
2024/04/10 02:28:56;;;;;;;2.50;2.30;;;;;;;;;;5452738;26;20279;-63
2024/04/10 02:31:22;;;;;;;2.20;2.10;;;;;;;;;;5450044;26;20270;-63
2024/04/10 02:33:52;;;;;;;2.40;2.20;;;;;;;;;;5452457;26;20561;-64
2024/04/10 02:36:18;;;;;;;2.92;2.72;;;;;;;;;;5450051;26;20243;-64
2024/04/10 02:38:46;;;;;;;2.65;2.45;;;;;;;;;;5452660;26;20504;-63
2024/04/10 02:41:12;;;;;;;3.45;3.15;;;;;;;;;;5449661;26;20224;-64
2024/04/10 02:43:40;;;;;;;4.07;3.78;;;;;;;;;;5452213;26;20344;-64
2024/04/10 02:46:05;;;;;;;4.03;3.72;;;;;;;;;;5449637;26;20332;-64
2024/04/10 02:48:34;;;;;;;3.95;3.65;;;;;;;;;;5451829;26;20251;-63
2024/04/10 02:51:03;;;;;;;3.17;2.97;;;;;;;;;;5449384;26;20232;-64
2024/04/10 02:53:31;;;;;;;4.25;3.85;;;;;;;;;;5452071;26;20267;-63
2024/04/10 02:55:57;;;;;;;4.53;4.18;;;;;;;;;;5449891;26;20559;-63
2024/04/10 02:58:25;;;;;;;4.22;3.92;;;;;;;;;;5451936;26;20283;-63
2024/04/10 03:00:52;;;;;;;2.80;2.60;;;;;;;;;;5449943;26;20316;-63
2024/04/10 03:03:20;;;;;;;2.63;2.47;;;;;;;;;;5452696;26;20277;-63
2024/04/10 03:05:46;;;;;;;3.50;3.20;;;;;;;;;;5449774;26;20743;-63
2024/04/10 03:08:17;;;;;;;3.03;2.83;;;;;;;;;;5452418;26;20321;-63
2024/04/10 03:10:43;;;;;;;3.35;3.05;;;;;;;;;;5449488;26;20274;-62
2024/04/10 03:13:11;;;;;;;2.55;2.20;;;;;;;;;;5451473;26;20701;-63
2024/04/10 03:15:36;;;;;;;2.85;2.65;;;;;;;;;;5449551;26;20228;-64
2024/04/10 03:18:05;;;;;;;3.45;2.40;;;;;;;;;;5451537;26;20240;-63
2024/04/10 03:20:31;;;;;;;1.80;1.70;;;;;;;;;;5388448;26;20227;-64
2024/04/10 03:22:59;;;;;;;1.92;1.83;;;;;;;;;;5452070;26;20232;-64
2024/04/10 03:25:28;;;;;;;2.70;2.28;;;;;;;;;;5449141;26;20270;-64
2024/04/10 03:27:56;;;;;;;2.17;2.08;;;;;;;;;;5452221;26;20228;-63
2024/04/10 03:30:22;;;;;;;1.92;1.83;;;;;;;;;;5448946;26;20736;-63
2024/04/10 03:32:50;;;;;;;1.50;1.40;;;;;;;;;;5388989;26;20270;-63
2024/04/10 03:35:16;;;;;;;2.33;2.15;;;;;;;;;;5447850;26;20821;-64
2024/04/10 03:37:44;;;;;;;1.88;1.77;;;;;;;;;;5451138;26;20232;-63
2024/04/10 03:40:10;;;;;;;1.83;1.73;;;;;;;;;;5449113;26;20410;-64
2024/04/10 03:42:41;;;;;;;1.70;1.60;;;;;;;;;;5451249;26;20228;-63
2024/04/10 03:45:07;;;;;;;1.60;1.50;;;;;;;;;;5448864;26;20321;-63
2024/04/10 03:47:35;;;;;;;1.55;1.45;;;;;;;;;;5451155;26;21127;-64
2024/04/10 03:50:03;;;;;;;1.67;1.58;;;;;;;;;;5448831;26;20351;-64
2024/04/10 03:52:31;;;;;;;2.10;1.80;;;;;;;;;;5448705;26;20270;-63
2024/04/10 03:54:57;;;;;;;2.50;1.95;;;;;;;;;;5448580;26;20281;-63
2024/04/10 03:57:25;;;;;;;2.15;1.95;;;;;;;;;;5450899;26;20697;-63
2024/04/10 03:59:53;;;;;;;2.05;1.95;;;;;;;;;;5448446;26;20362;-63
2024/04/10 04:02:22;;;;;;;3.95;3.15;;;;;;;;;;5450807;26;20763;-63
2024/04/10 04:04:47;;;;;;;3.85;3.35;;;;;;;;;;5448349;26;20227;-64
2024/04/10 04:07:15;;;;;;;4.63;4.18;;;;;;;;;;5388376;26;20340;-64
2024/04/10 04:09:41;;;;;;;4.80;4.38;;;;;;;;;;5448300;26;20236;-63
2024/04/10 04:12:09;;;;;;;5.30;4.80;;;;;;;;;;5450625;26;20707;-64
2024/04/10 04:14:35;;;;;;;4.28;3.97;;;;;;;;;;5448383;26;20270;-64
2024/04/10 04:17:06;;;;;;;6.15;4.45;;;;;;;;;;5450200;26;20227;-63
2024/04/10 04:19:31;;;;;;;3.88;3.58;;;;;;;;;;5448382;26;20243;-64
2024/04/10 04:21:59;;;;;;;6.13;5.53;;;;;;;;;;5450704;26;20336;-63
2024/04/10 04:24:25;;;;;;;5.03;4.63;;;;;;;;;;5448095;26;20220;-64
2024/04/10 04:26:53;;;;;;;5.32;4.93;;;;;;;;;;5450700;26;20676;-63
2024/04/10 04:29:21;;;;;;;6.07;4.88;;;;;;;;;;5448038;26;20282;-63
2024/04/10 04:31:50;;;;;;;6.80;5.53;;;;;;;;;;5447994;26;20274;-63
2024/04/10 04:34:20;;;;;;;6.03;5.13;;;;;;;;;;5450346;26;20586;-64
2024/04/10 04:36:46;;;;;;;7.35;5.13;;;;;;;;;;5448091;26;20329;-63
2024/04/10 04:39:15;;;;;;;5.75;3.83;;;;;;;;;;5450394;26;20232;-63
2024/04/10 04:41:41;;;;;;;3.70;3.33;;;;;;;;;;5447867;26;20278;-63
2024/04/10 04:44:09;;;;;;;4.93;3.30;;;;;;;;;;5450010;26;20232;-63
2024/04/10 04:46:34;;;;;;;3.00;2.78;;;;;;;;;;5447821;26;20228;-64
2024/04/10 04:49:02;;;;;;;6.28;3.70;;;;;;;;;;5450116;26;20663;-64
2024/04/10 04:51:31;;;;;;;6.63;5.28;;;;;;;;;;5447996;26;20712;-63
2024/04/10 04:53:59;;;;;;;8.63;5.38;;;;;;;;;;5450246;26;20236;-63
2024/04/10 04:56:25;;;;;;;5.20;4.70;;;;;;;;;;5386256;26;20627;-63
2024/04/10 04:58:53;;;;;;;7.70;4.03;;;;;;;;;;5450289;26;20231;-63
2024/04/10 05:01:18;;;;;;;5.78;4.15;;;;;;;;;;5447563;26;20747;-62
2024/04/10 05:06:30;;;;;;;4.63;4.15;;;;;;;;;;5449971;26;20341;-63
2024/04/10 05:09:04;;;;;;;9.05;4.25;;;;;;;;;;5447462;26;20331;-63
2024/04/10 05:11:32;;;;;;;3.53;3.22;;;;;;;;;;5447349;26;20232;-63
2024/04/10 05:13:58;;;;;;;5.18;3.97;;;;;;;;;;5447270;26;20784;-62
2024/04/10 05:16:26;;;;;;;6.55;5.22;;;;;;;;;;5449920;26;20224;-63
2024/04/10 05:18:52;;;;;;;12.68;10.80;;;;;;;;;;5447181;26;20231;-62
2024/04/10 05:21:20;;;;;;;7.35;5.70;;;;;;;;;;5449910;26;20336;-62
2024/04/10 05:23:47;;;;;;;8.55;5.80;;;;;;;;;;5446990;26;20274;-60
2024/04/10 05:26:17;;;;;;;5.95;4.80;;;;;;;;;;5449751;26;20270;-60
2024/04/10 05:28:43;;;;;;;5.78;3.78;;;;;;;;;;5446928;26;20332;-62
2024/04/10 05:31:12;;;;;;;2.72;2.50;;;;;;;;;;5384722;26;20240;-62
2024/04/10 05:33:38;;;;;;;4.22;2.50;;;;;;;;;;5447345;26;20262;-61
2024/04/10 05:36:07;;;;;;;3.20;2.17;;;;;;;;;;5449271;26;20284;-59
2024/04/10 05:38:33;;;;;;;9.95;2.95;;;;;;;;;;5447518;26;20236;-60
2024/04/10 05:41:03;;;;;;;5.05;2.65;;;;;;;;;;5449924;26;20261;-60
2024/04/10 05:43:31;;;;;;;4.22;2.45;;;;;;;;;;5414381;26;20228;-60
2024/04/10 05:45:59;;;;;;;5.60;2.45;;;;;;;;;;5449368;26;20228;-60
2024/04/10 05:48:25;;;;;;;3.92;1.88;;;;;;;;;;5446646;26;20290;-60
2024/04/10 05:50:57;;;;;;;4.57;2.00;;;;;;;;;;5449151;26;20232;-60
2024/04/10 05:53:23;;;;;;;3.75;2.17;;;;;;;;;;5446154;26;20830;-60
2024/04/10 05:55:51;;;;;;;2.88;2.08;;;;;;;;;;5449013;26;20266;-60
2024/04/10 05:58:17;;;;;;;3.75;2.13;;;;;;;;;;5445600;26;20569;-60
2024/04/10 06:00:48;;;;;;;3.55;2.03;;;;;;;;;;5415737;26;20270;-60
2024/04/10 06:03:13;;;;;;;3.28;1.90;;;;;;;;;;5446580;26;20307;-60
2024/04/10 06:05:42;;;;;;;3.30;1.95;;;;;;;;;;5448733;26;20343;-60
2024/04/10 06:08:08;;;;;;;2.00;1.80;;;;;;;;;;5446371;26;20228;-60
2024/04/10 06:10:36;;;;;;;2.00;1.80;;;;;;;;;;5448783;26;20228;-59
2024/04/10 06:13:01;;;;;;;2.90;1.98;;;;;;;;;;5446349;26;21196;-60
2024/04/10 06:15:29;;;;;;;3.17;2.08;;;;;;;;;;5448550;26;20235;-60
2024/04/10 06:17:58;;;;;;;2.78;2.03;;;;;;;;;;5446108;26;20232;-60
2024/04/10 06:20:26;;;;;;;3.10;2.42;;;;;;;;;;5448722;26;20266;-60
2024/04/10 06:22:51;;;;;;;2.53;2.10;;;;;;;;;;5446292;26;20232;-60
2024/04/10 06:25:20;;;;;;;2.95;2.75;;;;;;;;;;5448712;26;20747;-60
2024/04/10 06:27:45;;;;;;;2.85;2.17;;;;;;;;;;5446306;26;20339;-60
2024/04/10 06:30:14;;;;;;;4.55;2.70;;;;;;;;;;5447121;26;20725;-60
2024/04/10 06:32:39;;;;;;;3.42;2.30;;;;;;;;;;5446055;26;20269;-59
2024/04/10 06:35:10;;;;;;;2.50;2.20;;;;;;;;;;5385868;26;20572;-60
2024/04/10 06:37:36;;;;;;;2.85;2.30;;;;;;;;;;5445625;26;20228;-60
2024/04/10 06:40:05;;;;;;;5.20;3.15;;;;;;;;;;5448319;26;20350;-60
2024/04/10 06:42:30;;;;;;;2.25;2.05;;;;;;;;;;5445883;26;20231;-60
2024/04/10 06:44:58;;;;;;;3.55;2.92;;;;;;;;;;5448362;26;20232;-59
2024/04/10 06:47:24;;;;;;;2.63;2.35;;;;;;;;;;5445505;26;20601;-60
2024/04/10 06:49:53;;;;;;;3.90;3.20;;;;;;;;;;5415254;26;20244;-60
2024/04/10 06:52:21;;;;;;;3.45;2.67;;;;;;;;;;5384700;26;20232;-59
2024/04/10 06:54:49;;;;;;;5.47;3.35;;;;;;;;;;5447895;26;20227;-59
2024/04/10 06:57:15;;;;;;;4.57;3.67;;;;;;;;;;5445457;26;20725;-59
2024/04/10 06:59:43;;;;;;;7.72;3.75;;;;;;;;;;5447799;26;20309;-60
2024/04/10 07:02:09;;;;;;;3.60;3.17;;;;;;;;;;5445267;26;20227;-59
2024/04/10 07:04:37;;;;;;;4.55;3.38;;;;;;;;;;5414810;26;20271;-59
2024/04/10 07:07:03;;;;;;;4.80;2.85;;;;;;;;;;5444966;26;20716;-59
2024/04/10 07:09:35;;;;;;;4.28;2.92;;;;;;;;;;5448943;26;20266;-59
2024/04/10 07:12:01;;;;;;;3.10;2.47;;;;;;;;;;5448660;26;20224;-59
2024/04/10 07:14:34;;;;;;;2.72;2.45;;;;;;;;;;5451419;26;20223;-59
2024/04/10 07:16:59;;;;;;;3.35;3.05;;;;;;;;;;5448703;26;20708;-59
2024/04/10 07:19:31;;;;;;;4.55;2.67;;;;;;;;;;5451400;26;20328;-60
2024/04/10 07:21:56;;;;;;;5.43;4.90;;;;;;;;;;5448786;26;20659;-59
2024/04/10 07:24:25;;;;;;;5.28;3.22;;;;;;;;;;5451273;26;20228;-60
2024/04/10 07:26:56;;;;;;;3.42;3.13;;;;;;;;;;5449006;26;20228;-59
2024/04/10 07:29:21;;;;;;;4.25;2.45;;;;;;;;;;5448886;26;20239;-59
2024/04/10 07:31:49;;;;;;;2.55;2.35;;;;;;;;;;5451043;26;20228;-55
2024/04/10 07:34:17;;;;;;;3.00;2.40;;;;;;;;;;5448478;26;20240;-58
2024/04/10 07:36:45;;;;;;;3.53;2.85;;;;;;;;;;5450714;26;20353;-57
2024/04/10 07:39:11;;;;;;;3.25;2.30;;;;;;;;;;5448241;26;20321;-57
2024/04/10 07:41:40;;;;;;;2.55;2.03;;;;;;;;;;5450604;26;20263;-58
2024/04/10 07:44:08;;;;;;;2.97;2.10;;;;;;;;;;5448226;26;20228;-59
2024/04/10 07:46:37;;;;;;;2.53;2.00;;;;;;;;;;5450874;26;21035;-59
2024/04/10 07:49:02;;;;;;;2.13;1.73;;;;;;;;;;5447598;26;20244;-57
2024/04/10 07:51:30;;;;;;;2.03;1.83;;;;;;;;;;5450761;26;20278;-59
2024/04/10 07:53:56;;;;;;;1.60;1.50;;;;;;;;;;5448201;26;20337;-59
2024/04/10 07:56:26;;;;;;;2.55;1.70;;;;;;;;;;5450542;26;20240;-57
2024/04/10 07:58:51;;;;;;;2.25;1.30;;;;;;;;;;5448353;26;20228;-57
2024/04/10 08:01:22;;;;;;;2.25;2.00;;;;;;;;;;5450646;26;20278;-58
2024/04/10 08:03:48;;;;;;;2.95;1.52;;;;;;;;;;5447968;26;20324;-60
2024/04/10 08:06:16;;;;;;;2.55;2.08;;;;;;;;;;5450368;26;20220;-58
2024/04/10 08:08:42;;;;;;;2.25;1.80;;;;;;;;;;5386837;26;20228;-57
2024/04/10 08:11:11;;;;;;;2.15;1.70;;;;;;;;;;5450255;26;20228;-57
2024/04/10 08:13:37;;;;;;;4.72;2.25;;;;;;;;;;5448308;26;20224;-59
2024/04/10 08:16:07;;;;;;;2.85;1.90;;;;;;;;;;5450034;26;20274;-59
2024/04/10 08:18:36;;;;;;;1.95;1.48;;;;;;;;;;5385413;26;20227;-57
2024/04/10 08:21:04;;;;;;;3.08;1.40;;;;;;;;;;5449616;26;20701;-60
2024/04/10 08:23:30;;;;;;;3.05;1.92;;;;;;;;;;5447782;26;20224;-60
2024/04/10 08:25:59;;;;;;;2.00;1.75;;;;;;;;;;5450413;26;20758;-59
2024/04/10 08:28:25;;;;;;;1.35;1.25;;;;;;;;;;5447687;26;20813;-60
2024/04/10 08:30:53;;;;;;;2.60;2.20;;;;;;;;;;5448309;26;20329;-59
2024/04/10 08:33:19;;;;;;;2.10;1.52;;;;;;;;;;5447791;26;20239;-60
2024/04/10 08:35:56;;;;;;;3.30;2.22;;;;;;;;;;5450027;26;20278;-59
2024/04/10 08:38:21;;;;;;;2.30;2.10;;;;;;;;;;5447435;26;20273;-57
2024/04/10 08:40:51;;;;;;;3.88;2.08;;;;;;;;;;5450068;26;20228;-59
2024/04/10 08:43:17;;;;;;;2.60;1.48;;;;;;;;;;5447732;26;20305;-60
2024/04/10 08:45:46;;;;;;;2.35;1.65;;;;;;;;;;5449622;26;20799;-57
2024/04/10 08:48:12;;;;;;;1.40;1.30;;;;;;;;;;5447617;26;20240;-59
2024/04/10 08:50:41;;;;;;;2.53;1.73;;;;;;;;;;5450069;26;20232;-59
2024/04/10 08:53:10;;;;;;;1.73;1.27;;;;;;;;;;5447331;26;20709;-60
2024/04/10 08:55:38;;;;;;;1.80;1.35;;;;;;;;;;5449745;26;20243;-59
2024/04/10 08:58:04;;;;;;;1.17;1.08;;;;;;;;;;5447208;26;20712;-60
2024/04/10 09:00:32;;;;;;;2.95;2.65;;;;;;;;;;5449651;26;20232;-59
2024/04/10 09:02:58;;;;;;;2.70;1.52;;;;;;;;;;5447238;26;20274;-59
2024/04/10 09:05:27;;;;;;;1.35;1.25;;;;;;;;;;5449726;26;20231;-59
2024/04/10 09:07:57;;;;;;;1.55;1.45;;;;;;;;;;5447312;26;20228;-59
2024/04/10 09:10:28;;;;;;;3.33;1.77;;;;;;;;;;5449726;26;20228;-59
2024/04/10 09:13:01;;;;;;;3.17;1.58;;;;;;;;;;5447505;26;20318;-60
2024/04/10 09:15:29;;;;;;;2.90;1.08;;;;;;;;;;5449709;26;20228;-60
2024/04/10 09:17:55;;;;;;;1.67;1.58;;;;;;;;;;5385990;26;20224;-58
2024/04/10 09:20:23;;;;;;;2.25;1.70;;;;;;;;;;5449798;26;20312;-59
2024/04/10 09:22:57;;;;;;;2.67;1.90;;;;;;;;;;5447394;26;20305;-60
2024/04/10 09:25:27;;;;;;;1.70;1.50;;;;;;;;;;5449802;26;20232;-60
2024/04/10 09:28:03;;;;;;;2.95;1.73;;;;;;;;;;5447490;26;20339;-60
2024/04/10 09:30:32;;;;;;;1.48;1.30;;;;;;;;;;5448295;26;20290;-58
2024/04/10 09:32:58;;;;;;;1.52;1.42;;;;;;;;;;5445327;26;20224;-60
2024/04/10 09:35:27;;;;;;;1.13;1.02;;;;;;;;;;5449510;26;20224;-57
2024/04/10 09:37:54;;;;;;;3.05;1.42;;;;;;;;;;5446633;26;20228;-58
2024/04/10 09:40:25;;;;;;;2.47;1.25;;;;;;;;;;5449160;26;20344;-59
2024/04/10 09:43:04;;;;;;;3.63;1.48;;;;;;;;;;5446673;26;20271;-59
2024/04/10 09:45:35;;;;;;;2.28;2.03;;;;;;;;;;5449091;26;20231;-57
2024/04/10 09:48:04;;;;;;;1.83;0.88;;;;;;;;;;5446343;26;20244;-59
2024/04/10 09:50:32;;;;;;;1.58;1.13;;;;;;;;;;5449227;26;20345;-59
2024/04/10 09:54:27;;;;;;;1.50;1.38;;;;;;;;;;5605158;25;20996;-58
2024/04/10 09:56:53;;;;;;;1.30;1.20;;;;;;;;;;5539100;25;20284;-59
2024/04/10 09:59:22;;;;;;;1.25;1.13;;;;;;;;;;5541444;25;20305;-59
2024/04/10 10:01:48;;;;;;;1.45;1.35;;;;;;;;;;5538747;25;20230;-59
2024/04/10 10:04:16;;;;;;;1.50;1.40;;;;;;;;;;5541707;25;20327;-59
2024/04/10 10:06:42;;;;;;;1.92;1.63;;;;;;;;;;5538866;25;20378;-59
2024/04/10 10:09:10;;;;;;;0.90;0.90;;;;;;;;;;5541369;25;20225;-59
2024/04/10 10:11:38;;;;;;;1.38;1.27;;;;;;;;;;5538718;25;20694;-56
2024/04/10 10:14:10;;;;;;;1.63;1.15;;;;;;;;;;5541066;25;20229;-59
2024/04/10 10:16:35;;;;;;;1.00;1.00;;;;;;;;;;5538714;25;20316;-58
2024/04/10 10:19:04;;;;;;;2.17;1.77;;;;;;;;;;5540846;25;20241;-59
2024/04/10 10:21:30;;;;;;;0.80;0.80;;;;;;;;;;5538747;25;20225;-59
2024/04/10 10:23:56;;;;;;;1.13;0.95;;;;;;;;;;5541204;25;20331;-59
2024/04/10 10:26:25;;;;;;;3.13;1.48;;;;;;;;;;5540666;25;20279;-59
2024/04/10 10:28:59;;;;;;;1.60;0.75;;;;;;;;;;5538665;25;20261;-59
2024/04/10 10:31:28;;;;;;;0.82;0.82;;;;;;;;;;5502520;25;20234;-59
2024/04/10 10:33:58;;;;;;;0.73;0.73;;;;;;;;;;5501386;25;20328;-59
2024/04/10 10:36:26;;;;;;;1.42;0.90;;;;;;;;;;5503938;25;20238;-59
2024/04/10 10:38:59;;;;;;;1.00;0.90;;;;;;;;;;5501421;25;20226;-59
2024/04/10 10:41:27;;;;;;;1.23;0.98;;;;;;;;;;5503727;25;20238;-59
2024/04/10 10:43:59;;;;;;;1.65;1.05;;;;;;;;;;5501124;25;20226;-56
2024/04/10 10:46:28;;;;;;;1.33;0.52;;;;;;;;;;5503998;25;20230;-59
2024/04/10 10:48:53;;;;;;;4.50;1.10;;;;;;;;;;5501074;25;20226;-60
2024/04/10 10:51:23;;;;;;;0.70;0.70;;;;;;;;;;5503707;25;20276;-59
2024/04/10 10:53:48;;;;;;;1.00;0.90;;;;;;;;;;5500760;25;20566;-59
2024/04/10 10:56:24;;;;;;;1.65;1.23;;;;;;;;;;5503625;25;20230;-59
2024/04/10 10:58:50;;;;;;;0.77;0.77;;;;;;;;;;5501355;25;20226;-59
2024/04/10 11:01:21;;;;;;;1.23;0.70;;;;;;;;;;5503488;25;20231;-59
2024/04/10 11:03:47;;;;;;;0.50;0.50;;;;;;;;;;5463364;26;20262;-58
2024/04/10 11:06:16;;;;;;;1.23;0.70;;;;;;;;;;5487437;26;20696;-58
2024/04/10 11:08:41;;;;;;;1.05;0.75;;;;;;;;;;5485014;26;20268;-59
2024/04/10 11:11:10;;;;;;;1.65;0.85;;;;;;;;;;5487205;26;20317;-59
2024/04/10 11:13:35;;;;;;;1.67;1.30;;;;;;;;;;5484836;26;20836;-59
2024/04/10 11:16:03;;;;;;;0.85;0.85;;;;;;;;;;5487214;26;20243;-59
2024/04/10 11:18:33;;;;;;;0.95;0.85;;;;;;;;;;5484667;26;20265;-59
2024/04/10 11:21:01;;;;;;;0.80;0.80;;;;;;;;;;5487203;26;20269;-59
2024/04/10 11:23:29;;;;;;;3.05;0.80;;;;;;;;;;5484799;26;20364;-59
2024/04/10 11:25:58;;;;;;;0.57;0.47;;;;;;;;;;5487227;26;20231;-59
2024/04/10 11:28:23;;;;;;;0.60;0.60;;;;;;;;;;5484762;26;20222;-57
2024/04/10 11:30:52;;;;;;;1.40;0.77;;;;;;;;;;5422522;26;20355;-59
2024/04/10 11:33:17;;;;;;;0.60;0.60;;;;;;;;;;5484581;26;20231;-59
2024/04/10 11:35:48;;;;;;;0.65;0.65;;;;;;;;;;5487102;26;20223;-59
2024/04/10 11:38:14;;;;;;;1.40;0.70;;;;;;;;;;5484598;26;20219;-58
2024/04/10 11:40:43;;;;;;;0.65;0.65;;;;;;;;;;5486978;26;20742;-59
2024/04/10 11:43:08;;;;;;;0.95;0.73;;;;;;;;;;5484444;26;20299;-59
2024/04/10 11:45:37;;;;;;;1.90;0.70;;;;;;;;;;5487045;26;20342;-59
2024/04/10 11:48:04;;;;;;;0.70;0.70;;;;;;;;;;5484306;26;20238;-59
2024/04/10 11:50:33;;;;;;;0.98;0.93;;;;;;;;;;5486790;26;20234;-59
2024/04/10 11:53:01;;;;;;;1.20;0.88;;;;;;;;;;5484150;26;21147;-59
2024/04/10 11:55:30;;;;;;;1.05;0.80;;;;;;;;;;5486627;26;20231;-59
2024/04/10 11:57:55;;;;;;;1.13;0.60;;;;;;;;;;5484292;26;20619;-59
2024/04/10 12:00:23;;;;;;;0.73;0.60;;;;;;;;;;5453324;26;20269;-59
2024/04/10 12:02:49;;;;;;;1.17;0.55;;;;;;;;;;5483769;26;21089;-59
2024/04/10 12:05:17;;;;;;;0.88;0.60;;;;;;;;;;5486613;26;20227;-59
2024/04/10 12:07:45;;;;;;;3.13;0.73;;;;;;;;;;5483907;26;20332;-59
2024/04/10 12:10:16;;;;;;;0.90;0.70;;;;;;;;;;5486876;26;20231;-59
2024/04/10 12:12:42;;;;;;;0.40;0.40;;;;;;;;;;5484058;26;20243;-59
2024/04/10 12:15:10;;;;;;;1.15;0.63;;;;;;;;;;5485933;26;20235;-60
2024/04/10 12:17:36;;;;;;;1.38;0.80;;;;;;;;;;5482774;26;20954;-58
2024/04/10 12:20:05;;;;;;;1.13;1.00;;;;;;;;;;5486352;26;20230;-59
2024/04/10 12:22:31;;;;;;;0.65;0.52;;;;;;;;;;5484266;26;20273;-60
2024/04/10 12:24:59;;;;;;;0.55;0.55;;;;;;;;;;5486348;26;20733;-59
2024/04/10 12:27:27;;;;;;;0.70;0.60;;;;;;;;;;5484041;26;20276;-59
2024/04/10 12:29:56;;;;;;;2.28;0.60;;;;;;;;;;5485737;26;20388;-59
2024/04/10 12:32:22;;;;;;;0.60;0.60;;;;;;;;;;5483778;26;20251;-60
2024/04/10 12:34:51;;;;;;;0.75;0.75;;;;;;;;;;5486467;26;20759;-59
2024/04/10 12:40:04;;;;;;;3.47;0.77;;;;;;;;;;5486541;26;20852;-59
2024/04/10 12:42:35;;;;;;;0.80;0.80;;;;;;;;;;5483743;26;20231;-59
2024/04/10 12:45:00;;;;;;;0.90;0.60;;;;;;;;;;5483565;26;20303;-59
2024/04/10 12:47:29;;;;;;;0.80;0.60;;;;;;;;;;5486137;26;20585;-59
2024/04/10 12:49:55;;;;;;;0.90;0.75;;;;;;;;;;5483615;26;20223;-59
2024/04/10 12:52:23;;;;;;;1.30;1.10;;;;;;;;;;5485911;26;20246;-58
2024/04/10 12:54:48;;;;;;;1.20;0.77;;;;;;;;;;5483379;26;20231;-59
2024/04/10 12:57:18;;;;;;;1.92;0.85;;;;;;;;;;5423158;26;20581;-59
2024/04/10 12:59:48;;;;;;;1.60;1.42;;;;;;;;;;5483397;26;20273;-59
2024/04/10 13:02:16;;;;;;;1.10;1.00;;;;;;;;;;5486008;26;20262;-59
2024/04/10 13:04:42;;;;;;;1.23;0.60;;;;;;;;;;5483432;26;20227;-59
2024/04/10 13:07:10;;;;;;;1.15;0.90;;;;;;;;;;5486225;26;20223;-59
2024/04/10 13:09:36;;;;;;;5.40;3.67;;;;;;;;;;5483976;26;20248;-59
2024/04/10 13:12:04;;;;;;;1.23;1.13;;;;;;;;;;5486120;26;20402;-59
2024/04/10 13:14:29;;;;;;;0.63;0.60;;;;;;;;;;5483691;26;20269;-59
2024/04/10 13:17:00;;;;;;;1.88;0.80;;;;;;;;;;5486016;26;20226;-59
2024/04/10 13:19:27;;;;;;;0.73;0.68;;;;;;;;;;5483361;26;20219;-59
2024/04/10 13:21:55;;;;;;;1.00;0.65;;;;;;;;;;5485817;26;20226;-59
2024/04/10 13:24:21;;;;;;;1.95;1.50;;;;;;;;;;5483348;26;20844;-59
2024/04/10 13:26:49;;;;;;;1.35;1.00;;;;;;;;;;5484991;26;20239;-59
2024/04/10 13:29:14;;;;;;;1.25;0.70;;;;;;;;;;5482925;26;20231;-59
2024/04/10 13:31:42;;;;;;;1.00;0.70;;;;;;;;;;5422305;26;20231;-60
2024/04/10 13:34:11;;;;;;;1.52;1.08;;;;;;;;;;5482988;26;20227;-60
2024/04/10 13:36:40;;;;;;;1.08;0.98;;;;;;;;;;5485464;26;20231;-60
2024/04/10 13:39:06;;;;;;;0.60;0.60;;;;;;;;;;5449500;26;20712;-58
2024/04/10 13:41:35;;;;;;;2.05;0.93;;;;;;;;;;5485737;26;20230;-60
2024/04/10 13:44:02;;;;;;;0.95;0.85;;;;;;;;;;5482518;26;20218;-59
2024/04/10 13:46:31;;;;;;;0.50;0.50;;;;;;;;;;5485182;26;20266;-60
2024/04/10 13:48:56;;;;;;;0.95;0.60;;;;;;;;;;5482445;26;20268;-59
2024/04/10 13:51:28;;;;;;;1.33;0.68;;;;;;;;;;5485386;26;20239;-59
2024/04/10 13:53:54;;;;;;;0.70;0.65;;;;;;;;;;5482132;26;20243;-58
2024/04/10 13:56:22;;;;;;;0.50;0.50;;;;;;;;;;5485252;26;20238;-60
2024/04/10 13:58:48;;;;;;;0.55;0.55;;;;;;;;;;5482821;26;20695;-60
2024/04/10 14:01:17;;;;;;;1.10;0.43;;;;;;;;;;5484974;26;20231;-60
2024/04/10 14:03:44;;;;;;;0.63;0.50;;;;;;;;;;5482558;26;20268;-59
2024/04/10 14:06:12;;;;;;;0.52;0.52;;;;;;;;;;5484780;26;20359;-60
2024/04/10 14:08:41;;;;;;;1.83;0.57;;;;;;;;;;5482695;26;20223;-60
2024/04/10 14:11:09;;;;;;;0.50;0.50;;;;;;;;;;5484676;26;20234;-59
2024/04/10 14:13:35;;;;;;;1.00;0.63;;;;;;;;;;5420609;26;20219;-60
2024/04/10 14:16:04;;;;;;;0.95;0.50;;;;;;;;;;5484940;26;20235;-60
2024/04/10 14:18:30;;;;;;;0.38;0.38;;;;;;;;;;5482143;26;20266;-60
2024/04/10 14:21:02;;;;;;;0.22;0.22;;;;;;;;;;5484869;26;20273;-59
2024/04/10 14:23:28;;;;;;;0.60;0.40;;;;;;;;;;5418642;26;20227;-60
2024/04/10 14:26:00;;;;;;;1.42;0.40;;;;;;;;;;5484487;26;20275;-60
2024/04/10 14:28:26;;;;;;;0.50;0.50;;;;;;;;;;5448534;26;20277;-60
2024/04/10 14:30:59;;;;;;;0.50;0.50;;;;;;;;;;5483036;26;20774;-60
2024/04/10 14:33:25;;;;;;;0.50;0.50;;;;;;;;;;5481586;26;20274;-60
2024/04/10 14:35:53;;;;;;;1.05;0.68;;;;;;;;;;5484620;26;20615;-60
2024/04/10 14:38:18;;;;;;;1.40;0.47;;;;;;;;;;5481756;26;20230;-59
2024/04/10 14:40:47;;;;;;;2.45;0.60;;;;;;;;;;5487102;26;20269;-60
2024/04/10 14:43:15;;;;;;;0.73;0.50;;;;;;;;;;5485561;26;20285;-60
2024/04/10 14:45:44;;;;;;;0.77;0.70;;;;;;;;;;5487659;26;20230;-59
2024/04/10 14:48:10;;;;;;;0.65;0.65;;;;;;;;;;5485766;26;20388;-60
2024/04/10 14:50:38;;;;;;;1.52;0.73;;;;;;;;;;5487784;26;20235;-60
2024/04/10 14:53:04;;;;;;;0.50;0.50;;;;;;;;;;5485398;26;20251;-60